Time;durP1;ratioP1;P1;durP2;ratioP2;P2;SDS_P1;SDS_P2;PMS_P1;PMS_P2;Temp;Humidity;BMP_temperature;BMP_pressure;BME280_temperature;BME280_humidity;BME280_pressure;Samples;Min_cycle;Max_cycle;Signal;HPM_P1;HPM_P2
2022/03/13 00:00:54;;;;;;;;;;;;;;;13.97;40.11;100495.47;6112129;23;7149;-77
2022/03/13 00:03:22;;;;;;;;;;;;;;;13.97;39.97;100491.16;6113115;23;6786;-77
2022/03/13 00:05:52;;;;;;;;;;;;;;;13.98;40.84;100487.75;6111312;23;6795;-77
2022/03/13 00:08:29;;;;;;;;;;;;;;;13.99;40.39;100486.94;6112834;23;6842;-77
2022/03/13 00:10:56;;;;;;;;;;;;;;;14.00;40.16;100483.56;6137256;23;7104;-77
2022/03/13 00:13:29;;;;;;;;;;;;;;;14.00;41.09;100478.41;6114449;23;7271;-77
2022/03/13 00:15:56;;;;;;;;;;;;;;;13.98;39.93;100474.88;6112761;23;7194;-77
2022/03/13 00:18:22;;;;;;;;;;;;;;;13.99;40.27;100478.34;6112422;23;6835;-77
2022/03/13 00:20:48;;;;;;;;;;;;;;;13.97;41.10;100475.69;6113873;23;6778;-77
2022/03/13 00:23:15;;;;;;;;;;;;;;;13.97;40.25;100477.41;6111329;23;6968;-77
2022/03/13 00:25:41;;;;;;;;;;;;;;;13.96;40.09;100465.34;6112711;23;6992;-77
2022/03/13 00:28:07;;;;;;;;;;;;;;;13.96;40.08;100467.94;6112185;23;6787;-77
2022/03/13 00:30:34;;;;;;;;;;;;;;;13.95;41.18;100472.19;6114012;23;7084;-77
2022/03/13 00:33:00;;;;;;;;;;;;;;;13.94;40.75;100478.19;6114574;23;6990;-77
2022/03/13 00:35:27;;;;;;;;;;;;;;;13.94;40.08;100482.44;6114206;23;6949;-77
2022/03/13 00:37:55;;;;;;;;;;;;;;;13.92;40.59;100487.56;6136115;23;7076;-77
2022/03/13 00:40:21;;;;;;;;;;;;;;;13.88;41.28;100480.53;6086448;23;6782;-76
2022/03/13 00:42:48;;;;;;;;;;;;;;;13.85;41.25;100478.72;6086917;23;6778;-75
2022/03/13 00:45:14;;;;;;;;;;;;;;;13.82;41.08;100470.03;6114398;23;7280;-75
2022/03/13 00:47:39;;;;;;;;;;;;;;;13.79;41.33;100470.78;6088519;23;7036;-75
2022/03/13 00:50:06;;;;;;;;;;;;;;;13.75;41.07;100469.78;6112350;23;7151;-75
2022/03/13 00:52:32;;;;;;;;;;;;;;;13.72;41.82;100469.69;6112463;23;6787;-75
2022/03/13 00:54:57;;;;;;;;;;;;;;;13.70;40.75;100473.88;6112220;23;6932;-76
2022/03/13 00:57:23;;;;;;;;;;;;;;;13.69;41.93;100471.28;6111846;23;6786;-76
2022/03/13 00:59:49;;;;;;;;;;;;;;;13.64;42.07;100472.78;6111492;23;6826;-77
2022/03/13 01:02:15;;;;;;;;;;;;;;;13.60;41.98;100467.53;6111710;23;6775;-77
2022/03/13 01:04:40;;;;;;;;;;;;;;;13.55;41.85;100453.59;6114306;23;6762;-76
2022/03/13 01:07:06;;;;;;;;;;;;;;;13.53;41.90;100462.13;6112205;23;6786;-77
2022/03/13 01:09:32;;;;;;;;;;;;;;;13.50;42.54;100450.00;6136743;23;7044;-77
2022/03/13 01:11:58;;;;;;;;;;;;;;;13.50;41.73;100446.53;6086168;23;7079;-77
2022/03/13 01:14:24;;;;;;;;;;;;;;;13.49;41.70;100442.22;6113179;23;6904;-77
2022/03/13 01:17:03;;;;;;;;;;;;;;;13.52;42.23;100437.16;6113227;23;6926;-76
2022/03/13 01:19:30;;;;;;;;;;;;;;;13.53;41.43;100428.63;6112258;23;7876;-76
2022/03/13 01:21:56;;;;;;;;;;;;;;;13.53;41.75;100418.34;6108698;23;7070;-77
2022/03/13 01:24:53;;;;;;;;;;;;;;;13.52;41.34;100422.59;6109240;23;6914;-77
2022/03/13 01:27:20;;;;;;;;;;;;;;;13.50;41.94;100415.63;6095645;23;6787;-77
2022/03/13 01:29:45;;;;;;;;;;;;;;;13.48;41.95;100410.44;6111972;23;6996;-77
2022/03/13 01:32:13;;;;;;;;;;;;;;;13.45;41.67;100410.31;6111871;23;7148;-77
2022/03/13 01:34:48;;;;;;;;;;;;;;;13.42;41.14;100410.19;6112400;23;7923;-77
2022/03/13 01:37:36;;;;;;;;;;;;;;;13.37;41.33;100407.44;6112086;23;6774;-77
2022/03/13 01:40:12;;;;;;;;;;;;;;;13.30;41.41;100397.72;6113013;23;6926;-77
2022/03/13 01:42:40;;;;;;;;;;;;;;;13.25;40.91;100402.72;6110499;23;6854;-77
2022/03/13 01:45:11;;;;;;;;;;;;;;;13.19;41.14;100405.06;6111821;23;7806;-77
2022/03/13 01:47:37;;;;;;;;;;;;;;;13.11;40.98;100394.47;6114445;23;6977;-77
2022/03/13 01:50:06;;;;;;;;;;;;;;;13.06;41.53;100401.16;6112423;23;6786;-77
2022/03/13 01:52:32;;;;;;;;;;;;;;;12.96;41.34;100393.91;6111416;23;6794;-77
2022/03/13 01:54:58;;;;;;;;;;;;;;;12.88;42.03;100397.06;6112061;23;7027;-77
2022/03/13 01:57:25;;;;;;;;;;;;;;;12.78;41.99;100385.53;6112325;23;7796;-77
2022/03/13 01:59:55;;;;;;;;;;;;;;;12.68;42.27;100380.84;6136852;23;7189;-77
2022/03/13 02:02:24;;;;;;;;;;;;;;;12.60;41.90;100385.69;6086197;23;6994;-77
2022/03/13 02:04:53;;;;;;;;;;;;;;;12.50;41.65;100374.16;6111974;23;6988;-77
2022/03/13 02:07:22;;;;;;;;;;;;;;;12.43;42.11;100371.28;6112295;23;6986;-77
2022/03/13 02:09:48;;;;;;;;;;;;;;;12.36;41.89;100368.50;6112742;23;6787;-77
2022/03/13 02:12:18;;;;;;;;;;;;;;;12.30;42.03;100362.19;6111591;23;6775;-77
2022/03/13 02:14:44;;;;;;;;;;;;;;;12.25;42.22;100367.16;6113703;23;7807;-77
2022/03/13 02:17:09;;;;;;;;;;;;;;;12.22;42.96;100352.53;6111914;23;6940;-77
2022/03/13 02:19:35;;;;;;;;;;;;;;;12.19;42.83;100347.22;6113354;23;6857;-77
2022/03/13 02:22:01;;;;;;;;;;;;;;;12.18;42.43;100342.91;6112984;23;6974;-77
2022/03/13 02:24:28;;;;;;;;;;;;;;;12.18;42.85;100334.34;6089433;23;6950;-77
2022/03/13 02:27:02;;;;;;;;;;;;;;;12.19;42.31;100333.53;6114565;23;6778;-77
2022/03/13 02:29:28;;;;;;;;;;;;;;;12.21;42.48;100331.88;6114704;23;6979;-77
2022/03/13 02:31:57;;;;;;;;;;;;;;;12.22;42.46;100337.09;6112624;23;7291;-77
2022/03/13 02:34:23;;;;;;;;;;;;;;;12.26;42.61;100340.63;6088025;23;6966;-77
2022/03/13 02:36:51;;;;;;;;;;;;;;;12.28;42.83;100344.19;6113182;23;6771;-77
2022/03/13 02:39:18;;;;;;;;;;;;;;;12.30;42.38;100342.53;6115636;23;8066;-77
2022/03/13 02:41:44;;;;;;;;;;;;;;;12.31;42.44;100341.72;6113160;23;7169;-77
2022/03/13 02:44:14;;;;;;;;;;;;;;;12.37;42.60;100333.38;6114162;23;7040;-77
2022/03/13 02:46:49;;;;;;;;;;;;;;;12.42;42.28;100325.84;6113404;23;7728;-77
2022/03/13 02:49:19;;;;;;;;;;;;;;;12.44;42.47;100325.09;6115476;23;7311;-77
2022/03/13 02:51:48;;;;;;;;;;;;;;;12.49;41.86;100327.84;6112642;23;7811;-77
2022/03/13 02:54:15;;;;;;;;;;;;;;;12.52;42.36;100327.09;6114010;23;7131;-77
2022/03/13 02:56:42;;;;;;;;;;;;;;;12.53;42.59;100327.13;6115153;23;6786;-77
2022/03/13 02:59:09;;;;;;;;;;;;;;;12.53;42.33;100322.00;6113670;23;7019;-77
2022/03/13 03:01:37;;;;;;;;;;;;;;;12.56;41.79;100327.28;6113506;23;6951;-77
2022/03/13 03:04:03;;;;;;;;;;;;;;;12.59;41.88;100324.81;6142648;23;7157;-77
2022/03/13 03:06:31;;;;;;;;;;;;;;;12.60;42.44;100329.13;6119054;23;8085;-77
2022/03/13 03:08:58;;;;;;;;;;;;;;;12.62;41.85;100327.50;6117930;23;6787;-77
2022/03/13 03:11:24;;;;;;;;;;;;;;;12.62;42.21;100322.34;6092815;23;6866;-77
2022/03/13 03:13:49;;;;;;;;;;;;;;;12.62;41.98;100327.50;6093859;23;6853;-77
2022/03/13 03:16:15;;;;;;;;;;;;;;;12.63;41.67;100323.25;6118875;23;6778;-77
2022/03/13 03:18:41;;;;;;;;;;;;;;;12.63;41.71;100321.53;6118432;23;7018;-77
2022/03/13 03:21:07;;;;;;;;;;;;;;;12.64;41.64;100330.13;6117388;23;6838;-77
2022/03/13 03:23:33;;;;;;;;;;;;;;;12.63;41.59;100324.09;6120092;23;6874;-77
2022/03/13 03:25:59;;;;;;;;;;;;;;;12.64;41.87;100336.13;6118806;23;6912;-77
2022/03/13 03:28:25;;;;;;;;;;;;;;;12.66;42.09;100335.34;6117393;23;7100;-77
2022/03/13 03:30:51;;;;;;;;;;;;;;;12.66;41.58;100340.47;6117722;23;6778;-77
2022/03/13 03:33:17;;;;;;;;;;;;;;;12.66;41.52;100348.19;6117023;23;6861;-77
2022/03/13 03:35:43;;;;;;;;;;;;;;;12.65;41.92;100347.31;6117121;23;6943;-77
2022/03/13 03:38:09;;;;;;;;;;;;;;;12.64;41.14;100348.13;6117404;23;6782;-76
2022/03/13 03:40:35;;;;;;;;;;;;;;;12.62;41.44;100340.34;6116638;23;6782;-76
2022/03/13 03:43:04;;;;;;;;;;;;;;;12.57;42.23;100334.16;6116548;23;6986;-76
2022/03/13 03:45:31;;;;;;;;;;;;;;;12.51;42.30;100336.47;6117814;23;6779;-76
2022/03/13 03:47:57;;;;;;;;;;;;;;;12.44;42.18;100334.47;6117565;23;6791;-76
2022/03/13 03:50:24;;;;;;;;;;;;;;;12.39;42.56;100333.44;6092376;23;6791;-76
2022/03/13 03:52:55;;;;;;;;;;;;;;;12.32;42.40;100332.31;6116905;23;6796;-76
2022/03/13 03:55:21;;;;;;;;;;;;;;;12.24;43.04;100333.72;6116604;23;7027;-76
2022/03/13 03:57:47;;;;;;;;;;;;;;;12.15;42.83;100337.66;6117054;23;6928;-76
2022/03/13 04:00:13;;;;;;;;;;;;;;;12.09;42.99;100339.97;6116808;23;7031;-76
2022/03/13 04:02:39;;;;;;;;;;;;;;;12.04;43.32;100349.19;6114096;23;7105;-76
2022/03/13 04:05:06;;;;;;;;;;;;;;;12.00;43.66;100339.56;6138386;23;7039;-76
2022/03/13 04:07:32;;;;;;;;;;;;;;;11.95;43.41;100340.25;6113942;23;7224;-76
2022/03/13 04:09:58;;;;;;;;;;;;;;;11.93;42.80;100339.31;6111868;23;6947;-76
2022/03/13 04:12:25;;;;;;;;;;;;;;;11.90;43.39;100341.75;6114264;23;7051;-76
2022/03/13 04:14:52;;;;;;;;;;;;;;;11.89;43.38;100344.28;6113408;23;6823;-76
2022/03/13 04:17:18;;;;;;;;;;;;;;;11.85;43.21;100335.56;6112350;23;6767;-76
2022/03/13 04:19:44;;;;;;;;;;;;;;;11.85;43.26;100332.09;6113168;23;6782;-76
2022/03/13 04:22:10;;;;;;;;;;;;;;;11.84;43.10;100332.91;6112432;23;6810;-76
2022/03/13 04:24:36;;;;;;;;;;;;;;;11.79;42.85;100331.03;6113437;23;6767;-76
2022/03/13 04:27:02;;;;;;;;;;;;;;;11.72;43.10;100326.47;6114297;23;6755;-76
2022/03/13 04:29:27;;;;;;;;;;;;;;;11.62;43.53;100326.88;6112896;23;6786;-76
2022/03/13 04:31:55;;;;;;;;;;;;;;;11.52;43.17;100331.63;6113443;23;6762;-76
2022/03/13 04:34:22;;;;;;;;;;;;;;;11.43;43.55;100328.66;6112653;23;7808;-74
2022/03/13 04:36:49;;;;;;;;;;;;;;;11.37;44.12;100326.69;6113091;23;6786;-75
2022/03/13 04:39:16;;;;;;;;;;;;;;;11.33;43.80;100329.06;6112732;23;7115;-75
2022/03/13 04:41:43;;;;;;;;;;;;;;;11.28;44.26;100326.31;6112214;23;6805;-75
2022/03/13 04:44:14;;;;;;;;;;;;;;;11.26;44.33;100338.19;6112053;23;7012;-75
2022/03/13 04:46:42;;;;;;;;;;;;;;;11.25;44.62;100345.00;6113179;23;6978;-75
2022/03/13 04:49:08;;;;;;;;;;;;;;;11.26;44.68;100333.06;6137588;23;7069;-75
2022/03/13 04:51:34;;;;;;;;;;;;;;;11.28;44.78;100340.81;6112956;23;6779;-75
2022/03/13 04:54:00;;;;;;;;;;;;;;;11.28;44.90;100338.25;6113995;23;6774;-75
2022/03/13 04:56:26;;;;;;;;;;;;;;;11.27;45.12;100332.25;6112338;23;6766;-75
2022/03/13 04:58:52;;;;;;;;;;;;;;;11.27;44.46;100337.38;6113008;23;7051;-75
2022/03/13 05:01:20;;;;;;;;;;;;;;;11.27;44.66;100329.69;6110742;23;6787;-75
2022/03/13 05:03:46;;;;;;;;;;;;;;;11.28;44.55;100330.53;6086859;23;7191;-75
2022/03/13 05:06:12;;;;;;;;;;;;;;;11.30;44.71;100328.91;6115109;23;6940;-75
2022/03/13 05:08:39;;;;;;;;;;;;;;;11.30;44.52;100329.81;6113877;23;6779;-75
2022/03/13 05:11:05;;;;;;;;;;;;;;;11.31;44.41;100325.56;6112281;23;6953;-75
2022/03/13 05:13:32;;;;;;;;;;;;;;;11.33;44.44;100329.94;6087851;23;7783;-75
2022/03/13 05:15:57;;;;;;;;;;;;;;;11.34;44.64;100331.69;6111828;23;6948;-74
2022/03/13 05:18:23;;;;;;;;;;;;;;;11.35;45.03;100328.34;6112252;23;6771;-75
2022/03/13 05:20:49;;;;;;;;;;;;;;;11.38;45.08;100327.56;6111866;23;6770;-75
2022/03/13 05:23:15;;;;;;;;;;;;;;;11.41;44.87;100332.84;6108872;23;6766;-75
2022/03/13 05:25:41;;;;;;;;;;;;;;;11.41;44.35;100327.72;6112221;23;6830;-75
2022/03/13 05:28:11;;;;;;;;;;;;;;;11.43;44.68;100331.22;6113281;23;6782;-75
2022/03/13 05:30:39;;;;;;;;;;;;;;;11.44;44.61;100322.72;6112361;23;7135;-75
2022/03/13 05:33:06;;;;;;;;;;;;;;;11.45;44.48;100329.59;6113411;23;6835;-75
2022/03/13 05:35:32;;;;;;;;;;;;;;;11.48;44.49;100328.84;6112228;23;6982;-75
2022/03/13 05:37:58;;;;;;;;;;;;;;;11.48;44.20;100326.28;6113127;23;6779;-75
2022/03/13 05:40:25;;;;;;;;;;;;;;;11.49;44.30;100333.19;6111774;23;6828;-75
2022/03/13 05:42:58;;;;;;;;;;;;;;;11.49;44.35;100325.47;6112138;23;6783;-75
2022/03/13 05:45:27;;;;;;;;;;;;;;;11.49;44.48;100326.38;6113238;23;7055;-75
2022/03/13 05:48:06;;;;;;;;;;;;;;;11.50;44.11;100330.69;6112729;23;6810;-75
2022/03/13 05:50:32;;;;;;;;;;;;;;;11.53;43.91;100329.91;6112652;23;7159;-75
2022/03/13 05:52:59;;;;;;;;;;;;;;;11.53;43.95;100330.81;6111926;23;7045;-75
2022/03/13 05:55:26;;;;;;;;;;;;;;;11.56;44.23;100331.75;6091384;23;6879;-75
2022/03/13 05:57:58;;;;;;;;;;;;;;;11.55;43.85;100330.88;6090212;23;6779;-75
2022/03/13 06:00:26;;;;;;;;;;;;;;;11.56;43.89;100337.78;6115151;23;6876;-75
2022/03/13 06:02:53;;;;;;;;;;;;;;;11.58;43.62;100330.09;6136049;23;7506;-75
2022/03/13 06:05:21;;;;;;;;;;;;;;;11.57;43.93;100318.09;6114627;23;6967;-75
2022/03/13 06:07:48;;;;;;;;;;;;;;;11.56;43.71;100327.50;6115687;23;6791;-75
2022/03/13 06:10:15;;;;;;;;;;;;;;;11.55;43.67;100323.19;6113281;23;6783;-75
2022/03/13 06:12:41;;;;;;;;;;;;;;;11.56;43.98;100330.06;6114562;23;6787;-75
2022/03/13 06:15:14;;;;;;;;;;;;;;;11.57;43.59;100323.22;6113948;23;7267;-75
2022/03/13 06:17:42;;;;;;;;;;;;;;;11.58;43.48;100327.53;6115748;23;6996;-75
2022/03/13 06:20:11;;;;;;;;;;;;;;;11.60;43.87;100329.38;6114516;23;6819;-75
2022/03/13 06:22:42;;;;;;;;;;;;;;;11.62;43.46;100334.59;6113435;23;6786;-75
2022/03/13 06:25:10;;;;;;;;;;;;;;;11.63;43.58;100338.91;6116532;23;6904;-75
2022/03/13 06:27:38;;;;;;;;;;;;;;;11.64;43.69;100338.09;6114111;23;6787;-75
2022/03/13 06:30:12;;;;;;;;;;;;;;;11.66;44.06;100333.88;6139334;23;6787;-75
2022/03/13 06:32:43;;;;;;;;;;;;;;;11.67;43.57;100336.53;6113066;23;7047;-75
2022/03/13 06:35:11;;;;;;;;;;;;;;;11.70;43.64;100340.94;6115896;23;7383;-75
2022/03/13 06:37:38;;;;;;;;;;;;;;;11.73;43.32;100337.59;6112720;23;6849;-75
2022/03/13 06:40:06;;;;;;;;;;;;;;;11.76;43.56;100345.44;6114412;23;7220;-75
2022/03/13 06:42:33;;;;;;;;;;;;;;;11.80;43.47;100337.94;6087875;23;6949;-74
2022/03/13 06:45:00;;;;;;;;;;;;;;;11.89;43.64;100341.69;6116612;23;6941;-75
2022/03/13 06:47:26;;;;;;;;;;;;;;;11.95;43.39;100336.81;6113984;23;7260;-75
2022/03/13 06:49:52;;;;;;;;;;;;;;;12.03;43.47;100335.47;6113844;23;7037;-75
2022/03/13 06:52:18;;;;;;;;;;;;;;;12.12;43.66;100331.50;6112905;23;6782;-75
2022/03/13 06:54:45;;;;;;;;;;;;;;;12.21;43.69;100335.31;6114183;23;6859;-75
2022/03/13 06:57:14;;;;;;;;;;;;;;;12.32;43.56;100340.03;6116468;23;6795;-75
2022/03/13 06:59:43;;;;;;;;;;;;;;;12.41;43.61;100331.81;6113853;23;6790;-75
2022/03/13 07:02:10;;;;;;;;;;;;;;;12.52;42.94;100334.81;6113402;23;6986;-75
2022/03/13 07:04:37;;;;;;;;;;;;;;;12.63;42.92;100342.09;6114952;23;7403;-75
2022/03/13 07:07:03;;;;;;;;;;;;;;;12.72;42.88;100343.28;6113815;23;6787;-75
2022/03/13 07:09:29;;;;;;;;;;;;;;;12.80;42.93;100336.72;6114581;23;6851;-76
2022/03/13 07:11:55;;;;;;;;;;;;;;;12.88;42.04;100337.00;6112820;23;6850;-75
2022/03/13 07:14:21;;;;;;;;;;;;;;;12.97;41.95;100334.78;6114234;23;6854;-75
2022/03/13 07:16:48;;;;;;;;;;;;;;;13.03;41.43;100334.13;6114940;23;6782;-75
2022/03/13 07:19:13;;;;;;;;;;;;;;;13.10;41.86;100336.13;6077733;23;7119;-75
2022/03/13 07:21:39;;;;;;;;;;;;;;;13.15;42.03;100329.44;6106950;23;7141;-75
2022/03/13 07:24:06;;;;;;;;;;;;;;;13.20;41.66;100327.91;6112431;23;6862;-76
2022/03/13 07:26:32;;;;;;;;;;;;;;;13.26;41.89;100326.38;6112583;23;6942;-75
2022/03/13 07:29:01;;;;;;;;;;;;;;;13.32;41.03;100321.44;6114021;23;6787;-75
2022/03/13 07:31:30;;;;;;;;;;;;;;;13.38;41.48;100324.25;6086833;23;6862;-75
2022/03/13 07:33:57;;;;;;;;;;;;;;;13.43;41.90;100324.41;6111704;23;6841;-75
2022/03/13 07:36:23;;;;;;;;;;;;;;;13.52;41.53;100326.44;6114152;23;6870;-75
2022/03/13 07:38:50;;;;;;;;;;;;;;;13.59;41.30;100320.69;6112528;23;6998;-75
2022/03/13 07:41:15;;;;;;;;;;;;;;;13.68;40.59;100322.72;6110353;23;7180;-75
2022/03/13 07:43:41;;;;;;;;;;;;;;;13.77;41.10;100320.47;6109841;23;6791;-75
2022/03/13 07:46:07;;;;;;;;;;;;;;;13.87;41.07;100326.78;6112822;23;6897;-75
2022/03/13 07:48:35;;;;;;;;;;;;;;;13.95;40.20;100333.06;6112033;23;7066;-75
2022/03/13 07:51:03;;;;;;;;;;;;;;;14.01;40.88;100329.81;6113445;23;6803;-75
2022/03/13 07:53:29;;;;;;;;;;;;;;;14.07;40.01;100331.72;6112821;23;7812;-75
2022/03/13 07:55:55;;;;;;;;;;;;;;;14.12;39.94;100331.03;6111396;23;6941;-75
2022/03/13 07:58:21;;;;;;;;;;;;;;;14.21;40.58;100335.63;6111577;23;6925;-75
2022/03/13 08:00:47;;;;;;;;;;;;;;;14.33;40.77;100334.25;6110278;23;6941;-75
2022/03/13 08:03:17;;;;;;;;;;;;;;;14.44;39.65;100340.63;6111426;23;7081;-75
2022/03/13 08:05:43;;;;;;;;;;;;;;;14.55;39.77;100335.81;6111708;23;6949;-76
2022/03/13 08:08:09;;;;;;;;;;;;;;;14.63;39.28;100330.88;6112303;23;6951;-75
2022/03/13 08:10:35;;;;;;;;;;;;;;;14.69;39.99;100331.06;6111865;23;6853;-75
2022/03/13 08:13:01;;;;;;;;;;;;;;;14.73;39.68;100327.78;6112284;23;6778;-75
2022/03/13 08:15:27;;;;;;;;;;;;;;;14.75;39.77;100326.09;6110309;23;6942;-75
2022/03/13 08:17:53;;;;;;;;;;;;;;;14.76;39.21;100324.41;6114226;23;6983;-75
2022/03/13 08:20:18;;;;;;;;;;;;;;;14.75;38.63;100325.25;6087920;23;7099;-75
2022/03/13 08:22:44;;;;;;;;;;;;;;;14.74;38.42;100323.50;6111802;23;6782;-75
2022/03/13 08:25:16;;;;;;;;;;;;;;;14.70;38.56;100322.50;6111159;23;7088;-75
2022/03/13 08:27:42;;;;;;;;;;;;;;;14.65;38.75;100324.94;6088231;23;6954;-75
2022/03/13 08:30:10;;;;;;;;;;;;;;;14.65;39.70;100324.06;6135993;23;6886;-75
2022/03/13 08:32:36;;;;;;;;;;;;;;;14.68;39.20;100324.16;6110273;23;7274;-75
2022/03/13 08:35:02;;;;;;;;;;;;;;;14.73;39.07;100325.19;6110935;23;7122;-75
2022/03/13 08:37:28;;;;;;;;;;;;;;;14.79;38.82;100320.22;6111562;23;7266;-75
2022/03/13 08:39:54;;;;;;;;;;;;;;;14.91;39.59;100318.81;6111529;23;6900;-75
2022/03/13 08:42:19;;;;;;;;;;;;;;;15.01;38.76;100318.25;6110834;23;6906;-75
2022/03/13 08:44:45;;;;;;;;;;;;;;;15.10;38.73;100313.34;6113676;23;6974;-75
2022/03/13 08:47:11;;;;;;;;;;;;;;;15.23;38.75;100317.16;6111591;23;6795;-75
2022/03/13 08:49:36;;;;;;;;;;;;;;;15.37;39.07;100314.97;6112803;23;7285;-75
2022/03/13 08:52:04;;;;;;;;;;;;;;;15.52;38.02;100309.31;6109675;23;6799;-75
2022/03/13 08:54:29;;;;;;;;;;;;;;;15.69;38.26;100307.16;6087789;23;7264;-75
2022/03/13 08:56:55;;;;;;;;;;;;;;;15.86;38.30;100311.88;6089015;23;6806;-75
2022/03/13 08:59:21;;;;;;;;;;;;;;;16.03;37.88;100311.44;6113629;23;6787;-75
2022/03/13 09:01:50;;;;;;;;;;;;;;;16.17;38.12;100306.59;6113755;23;6947;-75
2022/03/13 09:04:16;;;;;;;;;;;;;;;16.26;37.69;100304.22;6112545;23;7015;-75
2022/03/13 09:06:43;;;;;;;;;;;;;;;16.29;37.22;100306.03;6111569;23;6947;-75
2022/03/13 09:09:10;;;;;;;;;;;;;;;16.27;37.22;100302.53;6112833;23;7143;-75
2022/03/13 09:11:37;;;;;;;;;;;;;;;16.20;37.04;100306.69;6087865;23;6945;-75
2022/03/13 09:14:03;;;;;;;;;;;;;;;16.13;37.00;100304.78;6137265;23;6782;-75
2022/03/13 09:16:31;;;;;;;;;;;;;;;16.03;37.58;100296.81;6112520;23;6786;-75
2022/03/13 09:18:57;;;;;;;;;;;;;;;15.97;37.78;100301.84;6111514;23;6951;-75
2022/03/13 09:21:23;;;;;;;;;;;;;;;15.92;37.68;100304.31;6111836;23;7057;-75
2022/03/13 09:23:50;;;;;;;;;;;;;;;15.90;37.80;100293.06;6114865;23;7050;-75
2022/03/13 09:26:15;;;;;;;;;;;;;;;15.88;37.78;100294.72;6113167;23;6858;-75
2022/03/13 09:28:41;;;;;;;;;;;;;;;15.91;37.99;100297.38;6112896;23;7363;-75
2022/03/13 09:31:08;;;;;;;;;;;;;;;15.94;37.93;100291.44;6112110;23;6852;-75
2022/03/13 09:33:34;;;;;;;;;;;;;;;15.98;37.44;100292.38;6137253;23;6790;-75
2022/03/13 09:35:59;;;;;;;;;;;;;;;16.01;37.22;100284.69;6112732;23;7049;-75
2022/03/13 09:38:25;;;;;;;;;;;;;;;16.06;37.42;100283.09;6113758;23;6786;-75
2022/03/13 09:40:51;;;;;;;;;;;;;;;16.12;37.37;100288.41;6112409;23;6850;-75
2022/03/13 09:43:19;;;;;;;;;;;;;;;16.22;37.70;100286.91;6111788;23;7006;-75
2022/03/13 09:45:46;;;;;;;;;;;;;;;16.33;37.24;100290.63;6088805;23;8272;-75
2022/03/13 09:48:15;;;;;;;;;;;;;;;16.41;37.13;100288.19;6113224;23;6879;-75
2022/03/13 09:50:42;;;;;;;;;;;;;;;16.50;36.79;100290.13;6113041;23;6981;-75
2022/03/13 09:53:08;;;;;;;;;;;;;;;16.57;37.14;100285.94;6113336;23;6986;-75
2022/03/13 09:55:34;;;;;;;;;;;;;;;16.64;36.91;100277.50;6113752;23;6930;-75
2022/03/13 09:58:00;;;;;;;;;;;;;;;16.72;36.62;100288.88;6112042;23;6862;-75
2022/03/13 10:00:26;;;;;;;;;;;;;;;16.79;36.74;100277.78;6114094;23;6847;-75
2022/03/13 10:02:53;;;;;;;;;;;;;;;16.88;36.71;100271.94;6113719;23;6774;-75
2022/03/13 10:05:20;;;;;;;;;;;;;;;16.97;36.77;100279.00;6112935;23;6941;-75
2022/03/13 10:07:49;;;;;;;;;;;;;;;17.04;36.73;100275.72;6136457;23;6950;-75
2022/03/13 10:10:15;;;;;;;;;;;;;;;17.12;36.27;100277.59;6114041;23;7114;-75
2022/03/13 10:12:41;;;;;;;;;;;;;;;17.19;36.07;100282.03;6111091;23;6856;-75
2022/03/13 10:15:08;;;;;;;;;;;;;;;17.27;36.23;100277.88;6112600;23;6791;-75
2022/03/13 10:17:37;;;;;;;;;;;;;;;17.37;36.15;100276.34;6088604;23;7026;-76
2022/03/13 10:20:25;;;;;;;;;;;;;;;17.50;35.97;100269.66;6111491;23;6966;-75
2022/03/13 10:22:59;;;;;;;;;;;;;;;17.63;36.18;100281.97;6112862;23;6782;-75
2022/03/13 10:25:33;;;;;;;;;;;;;;;17.80;35.89;100273.63;6113316;23;6814;-76
2022/03/13 10:28:17;;;;;;;;;;;;;;;18.16;35.81;100262.09;6112007;23;7281;-76
2022/03/13 10:30:45;;;;;;;;;;;;;;;19.04;35.59;100256.28;6111259;23;7231;-76
2022/03/13 10:33:11;;;;;;;;;;;;;;;20.37;34.29;100253.06;6111247;23;6823;-75
2022/03/13 10:35:39;;;;;;;;;;;;;;;21.68;32.78;100246.47;6112448;23;6966;-75
2022/03/13 10:38:23;;;;;;;;;;;;;;;23.06;31.75;100237.34;6136975;23;7285;-75
2022/03/13 10:40:56;;;;;;;;;;;;;;;24.34;31.13;100231.91;6137597;23;6862;-76
2022/03/13 10:43:26;;;;;;;;;;;;;;;25.47;30.00;100226.00;6113720;23;6786;-76
2022/03/13 10:45:54;;;;;;;;;;;;;;;26.41;28.80;100218.19;6089817;23;7898;-76
2022/03/13 10:48:43;;;;;;;;;;;;;;;27.25;27.63;100218.13;6113183;23;7150;-76
2022/03/13 10:51:12;;;;;;;;;;;;;;;28.07;26.75;100217.81;6112351;23;6795;-76
2022/03/13 10:53:41;;;;;;;;;;;;;;;28.65;26.12;100214.41;6113558;23;6879;-76
2022/03/13 10:56:14;;;;;;;;;;;;;;;29.15;25.89;100213.72;6113617;23;6794;-76
2022/03/13 10:58:45;;;;;;;;;;;;;;;29.59;25.33;100215.81;6112275;23;6967;-76
2022/03/13 11:01:14;;;;;;;;;;;;;;;30.03;25.25;100201.13;6112905;23;6794;-76
2022/03/13 11:03:55;;;;;;;;;;;;;;;30.40;24.52;100198.91;6114635;23;6798;-76
2022/03/13 11:06:24;;;;;;;;;;;;;;;30.71;24.29;100190.66;6114298;23;6807;-76
2022/03/13 11:08:53;;;;;;;;;;;;;;;30.88;23.26;100183.84;6089326;23;7103;-76
2022/03/13 11:11:20;;;;;;;;;;;;;;;30.93;22.80;100187.16;6114787;23;7109;-76
2022/03/13 11:13:56;;;;;;;;;;;;;;;31.14;22.84;100169.53;6113334;23;6945;-76
2022/03/13 11:16:32;;;;;;;;;;;;;;;31.41;22.59;100171.09;6113613;23;8142;-76
2022/03/13 11:19:05;;;;;;;;;;;;;;;31.62;22.16;100177.25;6113282;23;6779;-76
2022/03/13 11:21:32;;;;;;;;;;;;;;;31.88;22.38;100182.38;6087789;23;6889;-76
2022/03/13 11:24:00;;;;;;;;;;;;;;;32.18;21.70;100176.59;6114045;23;6774;-76
2022/03/13 11:26:31;;;;;;;;;;;;;;;32.35;21.57;100168.72;6137937;23;6955;-74
2022/03/13 11:28:58;;;;;;;;;;;;;;;32.52;21.53;100178.53;6115301;23;6783;-74
2022/03/13 11:31:40;;;;;;;;;;;;;;;32.69;21.25;100158.31;6087433;23;6955;-73
2022/03/13 11:34:20;;;;;;;;;;;;;;;32.73;21.14;100151.06;6115009;23;6902;-74
2022/03/13 11:36:48;;;;;;;;;;;;;;;32.85;20.74;100150.47;6089832;23;6783;-73
2022/03/13 11:39:34;;;;;;;;;;;;;;;33.06;20.43;100159.19;6112371;23;6794;-73
2022/03/13 11:42:01;;;;;;;;;;;;;;;33.23;20.16;100157.47;6112529;23;7055;-74
2022/03/13 11:44:32;;;;;;;;;;;;;;;33.36;20.40;100155.03;6112970;23;6875;-74
2022/03/13 11:47:00;;;;;;;;;;;;;;;33.06;20.25;100153.88;6112636;23;6953;-74
2022/03/13 11:49:26;;;;;;;;;;;;;;;32.88;20.20;100152.09;6087777;23;7139;-74
2022/03/13 11:52:17;;;;;;;;;;;;;;;32.75;19.52;100142.13;6113733;23;7848;-74
2022/03/13 11:54:46;;;;;;;;;;;;;;;32.61;19.27;100136.59;6114615;23;6870;-74
2022/03/13 11:57:26;;;;;;;;;;;;;;;32.74;19.59;100140.41;6115151;23;6892;-74
2022/03/13 12:00:10;;;;;;;;;;;;;;;33.09;19.41;100131.63;6112956;23;6945;-74
2022/03/13 12:02:42;;;;;;;;;;;;;;;33.36;19.17;100132.00;6114098;23;7396;-74
2022/03/13 12:05:25;;;;;;;;;;;;;;;33.73;19.05;100136.34;6115286;23;6882;-74
2022/03/13 12:08:05;;;;;;;;;;;;;;;33.56;19.08;100132.78;6112996;23;7119;-74
2022/03/13 12:10:43;;;;;;;;;;;;;;;32.67;19.50;100144.28;6089683;23;7262;-74
2022/03/13 12:13:15;;;;;;;;;;;;;;;32.03;19.79;100146.34;6113935;23;6951;-75
2022/03/13 12:15:42;;;;;;;;;;;;;;;31.86;19.93;100145.34;6112582;23;6980;-75
2022/03/13 12:18:32;;;;;;;;;;;;;;;31.62;20.47;100131.38;6113233;23;6987;-75
2022/03/13 12:21:10;;;;;;;;;;;;;;;30.76;20.07;100127.00;6087342;23;6840;-74
2022/03/13 12:23:39;;;;;;;;;;;;;;;29.80;20.85;100132.34;6113441;23;6862;-74
2022/03/13 12:26:22;;;;;;;;;;;;;;;28.83;20.74;100139.16;6113414;23;6838;-74
2022/03/13 12:28:54;;;;;;;;;;;;;;;28.32;21.17;100122.28;6138336;23;6962;-74
2022/03/13 12:31:20;;;;;;;;;;;;;;;27.82;21.41;100128.94;6113660;23;6778;-74
2022/03/13 12:33:53;;;;;;;;;;;;;;;27.39;21.95;100133.59;6113673;23;6766;-74
2022/03/13 12:36:20;;;;;;;;;;;;;;;26.69;21.87;100130.00;6111999;23;7043;-74
2022/03/13 12:38:53;;;;;;;;;;;;;;;25.99;22.16;100131.50;6110931;23;8009;-76
2022/03/13 12:41:24;;;;;;;;;;;;;;;25.40;22.73;100136.06;6112738;23;7026;-76
2022/03/13 12:44:04;;;;;;;;;;;;;;;24.91;23.48;100133.38;6113680;23;6802;-76
2022/03/13 12:46:32;;;;;;;;;;;;;;;24.60;24.42;100135.53;6088492;23;7246;-76
2022/03/13 12:49:07;;;;;;;;;;;;;;;24.40;24.75;100131.47;6113934;23;6779;-76
2022/03/13 12:51:44;;;;;;;;;;;;;;;24.34;24.77;100121.09;6112979;23;6957;-76
2022/03/13 12:54:22;;;;;;;;;;;;;;;24.20;25.16;100129.13;6112978;23;6926;-76